Decoded Metar for RKPK (KIMHAE in KOREA) (IATA:PUS) | Meteo·Mobile Aviation Weather
aviador You're here:

RKPK Decoded Metar

KIMHAE in KOREA
Report Time2018-10-18 00:00:00
UTC Time2018-10-18 00:29:40
Flight Rules vfr VFR
Wind020° at 05 kt
W.Decomp.*RWY 36: 4.5 kt HW 2.3 kt RCW
W.Rank020° ranks 6
Current wind is below 020° avg. (5.9)
Visibility9999 m
Phenomena:N/A
Clouds:N/A
Expected CloudBase > 2,000 ft AGL from Temp-Dew spread
CeilingNone
Temp13°C (ISA -2)
Dew Point08°C (72% RH)
AAT10.8°C
QNH1017 hPa
Density Alt-167 ft
Elevation49 ft
Report Wrong Elevation
Raw Report
METAR RKPK 180000Z 02005KT CAVOK 13/08 Q1017 NOSIG=

Extra information for RKPK:More info

Metar Taf Metar & Taf Last 4 Metars F.Rules Stats Wind Profile Meteogram Temp Stats Airport Information Weather charts Add Link Nearby VenuesMetar ALERT Operation Metar Decoded Social comments